sensor_id;sensor_type;location;lat;lon;timestamp;P1;durP1;ratioP1;P2;durP2;ratioP2
17239;SDS011;9943;54.378;18.604;2022-09-27T00:00:51;13.52;;;10.20;;
17239;SDS011;9943;54.378;18.604;2022-09-27T00:03:38;14.65;;;10.27;;
17239;SDS011;9943;54.378;18.604;2022-09-27T00:06:22;12.63;;;9.70;;
17239;SDS011;9943;54.378;18.604;2022-09-27T00:09:11;12.25;;;9.95;;
17239;SDS011;9943;54.378;18.604;2022-09-27T00:12:13;13.43;;;10.45;;
17239;SDS011;9943;54.378;18.604;2022-09-27T00:24:25;10.85;;;9.70;;
17239;SDS011;9943;54.378;18.604;2022-09-27T01:41:23;15.50;;;12.15;;
17239;SDS011;9943;54.378;18.604;2022-09-27T01:44:07;18.88;;;12.13;;
17239;SDS011;9943;54.378;18.604;2022-09-27T01:47:09;14.57;;;11.60;;
17239;SDS011;9943;54.378;18.604;2022-09-27T01:49:53;15.50;;;11.60;;
17239;SDS011;9943;54.378;18.604;2022-09-27T01:52:55;15.68;;;11.73;;
17239;SDS011;9943;54.378;18.604;2022-09-27T01:55:45;16.50;;;11.73;;
17239;SDS011;9943;54.378;18.604;2022-09-27T01:58:40;18.38;;;12.20;;
17239;SDS011;9943;54.378;18.604;2022-09-27T02:01:42;16.67;;;11.80;;
17239;SDS011;9943;54.378;18.604;2022-09-27T02:17:55;14.23;;;11.63;;
17239;SDS011;9943;54.378;18.604;2022-09-27T02:20:33;16.80;;;10.02;;
17239;SDS011;9943;54.378;18.604;2022-09-27T02:23:08;13.73;;;10.85;;
17239;SDS011;9943;54.378;18.604;2022-09-27T02:25:46;14.15;;;10.10;;
17239;SDS011;9943;54.378;18.604;2022-09-27T02:28:40;12.95;;;10.50;;
17239;SDS011;9943;54.378;18.604;2022-09-27T02:37:40;14.30;;;10.80;;
17239;SDS011;9943;54.378;18.604;2022-09-27T02:40:29;15.60;;;11.05;;
17239;SDS011;9943;54.378;18.604;2022-09-27T02:43:02;15.70;;;11.43;;
17239;SDS011;9943;54.378;18.604;2022-09-27T02:45:37;18.25;;;12.25;;
17239;SDS011;9943;54.378;18.604;2022-09-27T02:48:26;17.55;;;12.68;;
17239;SDS011;9943;54.378;18.604;2022-09-27T02:51:24;21.02;;;13.65;;
17239;SDS011;9943;54.378;18.604;2022-09-27T02:54:14;17.20;;;12.98;;
17239;SDS011;9943;54.378;18.604;2022-09-27T03:33:31;18.67;;;14.48;;
17239;SDS011;9943;54.378;18.604;2022-09-27T03:39:43;22.55;;;15.55;;
17239;SDS011;9943;54.378;18.604;2022-09-27T03:42:26;19.60;;;14.63;;
17239;SDS011;9943;54.378;18.604;2022-09-27T03:45:00;22.50;;;15.68;;
17239;SDS011;9943;54.378;18.604;2022-09-27T03:47:40;22.25;;;15.80;;
17239;SDS011;9943;54.378;18.604;2022-09-27T03:50:10;22.58;;;16.63;;
17239;SDS011;9943;54.378;18.604;2022-09-27T03:53:00;24.90;;;16.17;;
17239;SDS011;9943;54.378;18.604;2022-09-27T03:55:59;25.50;;;16.98;;
17239;SDS011;9943;54.378;18.604;2022-09-27T03:59:02;21.10;;;15.90;;
17239;SDS011;9943;54.378;18.604;2022-09-27T04:01:40;24.15;;;16.70;;
17239;SDS011;9943;54.378;18.604;2022-09-27T04:07:45;22.15;;;15.55;;
17239;SDS011;9943;54.378;18.604;2022-09-27T04:10:30;21.33;;;16.50;;
17239;SDS011;9943;54.378;18.604;2022-09-27T04:13:10;25.15;;;16.10;;
17239;SDS011;9943;54.378;18.604;2022-09-27T04:15:53;23.63;;;16.23;;
17239;SDS011;9943;54.378;18.604;2022-09-27T04:18:24;24.08;;;17.35;;
17239;SDS011;9943;54.378;18.604;2022-09-27T04:21:13;25.17;;;17.75;;
17239;SDS011;9943;54.378;18.604;2022-09-27T04:24:32;24.77;;;16.98;;
17239;SDS011;9943;54.378;18.604;2022-09-27T19:00:20;29.45;;;22.90;;
17239;SDS011;9943;54.378;18.604;2022-09-27T19:03:48;31.83;;;23.98;;
17239;SDS011;9943;54.378;18.604;2022-09-27T19:13:24;31.90;;;25.08;;
17239;SDS011;9943;54.378;18.604;2022-09-27T19:22:11;30.40;;;24.88;;
17239;SDS011;9943;54.378;18.604;2022-09-27T19:24:47;31.45;;;24.48;;
17239;SDS011;9943;54.378;18.604;2022-09-27T19:27:36;35.30;;;25.05;;
17239;SDS011;9943;54.378;18.604;2022-09-27T19:30:33;29.52;;;24.20;;
17239;SDS011;9943;54.378;18.604;2022-09-27T19:33:10;31.08;;;24.35;;
17239;SDS011;9943;54.378;18.604;2022-09-27T19:44:47;32.75;;;26.27;;
17239;SDS011;9943;54.378;18.604;2022-09-27T19:47:26;29.73;;;24.38;;
17239;SDS011;9943;54.378;18.604;2022-09-27T19:50:22;30.58;;;24.25;;
17239;SDS011;9943;54.378;18.604;2022-09-27T19:53:12;30.38;;;24.23;;
17239;SDS011;9943;54.378;18.604;2022-09-27T20:02:47;28.33;;;24.08;;
17239;SDS011;9943;54.378;18.604;2022-09-27T20:05:30;30.73;;;23.80;;
17239;SDS011;9943;54.378;18.604;2022-09-27T20:08:11;28.40;;;24.75;;
17239;SDS011;9943;54.378;18.604;2022-09-27T20:10:59;29.00;;;24.15;;
17239;SDS011;9943;54.378;18.604;2022-09-27T20:13:47;29.50;;;23.60;;
17239;SDS011;9943;54.378;18.604;2022-09-27T20:16:49;31.00;;;24.70;;
17239;SDS011;9943;54.378;18.604;2022-09-27T20:22:26;30.58;;;24.88;;
17239;SDS011;9943;54.378;18.604;2022-09-27T20:24:58;28.13;;;23.20;;
17239;SDS011;9943;54.378;18.604;2022-09-27T20:27:31;32.28;;;25.27;;
17239;SDS011;9943;54.378;18.604;2022-09-27T20:30:10;37.28;;;29.10;;
17239;SDS011;9943;54.378;18.604;2022-09-27T20:36:28;29.00;;;24.25;;
17239;SDS011;9943;54.378;18.604;2022-09-27T20:39:12;28.23;;;24.65;;
17239;SDS011;9943;54.378;18.604;2022-09-27T20:42:06;29.00;;;23.85;;
17239;SDS011;9943;54.378;18.604;2022-09-27T20:44:45;31.83;;;24.73;;
17239;SDS011;9943;54.378;18.604;2022-09-27T20:47:41;33.80;;;26.60;;
17239;SDS011;9943;54.378;18.604;2022-09-27T20:50:25;30.77;;;25.98;;
17239;SDS011;9943;54.378;18.604;2022-09-27T20:53:03;30.95;;;25.63;;
17239;SDS011;9943;54.378;18.604;2022-09-27T20:55:35;33.35;;;25.77;;
17239;SDS011;9943;54.378;18.604;2022-09-27T20:58:23;30.92;;;26.95;;
17239;SDS011;9943;54.378;18.604;2022-09-27T21:01:02;30.55;;;25.65;;
17239;SDS011;9943;54.378;18.604;2022-09-27T21:07:26;32.72;;;26.25;;
17239;SDS011;9943;54.378;18.604;2022-09-27T21:10:26;34.45;;;26.30;;
17239;SDS011;9943;54.378;18.604;2022-09-27T21:13:14;33.45;;;25.73;;
17239;SDS011;9943;54.378;18.604;2022-09-27T21:15:45;31.85;;;24.83;;
17239;SDS011;9943;54.378;18.604;2022-09-27T21:18:20;30.83;;;25.83;;
17239;SDS011;9943;54.378;18.604;2022-09-27T21:20:57;30.77;;;24.73;;
17239;SDS011;9943;54.378;18.604;2022-09-27T21:23:52;32.20;;;26.27;;
17239;SDS011;9943;54.378;18.604;2022-09-27T21:26:29;31.08;;;25.95;;
17239;SDS011;9943;54.378;18.604;2022-09-27T21:29:18;31.52;;;26.25;;
17239;SDS011;9943;54.378;18.604;2022-09-27T21:31:52;32.17;;;26.42;;
17239;SDS011;9943;54.378;18.604;2022-09-27T21:37:36;30.60;;;24.77;;
17239;SDS011;9943;54.378;18.604;2022-09-27T21:43:37;29.13;;;24.20;;
17239;SDS011;9943;54.378;18.604;2022-09-27T21:46:12;31.67;;;25.38;;
17239;SDS011;9943;54.378;18.604;2022-09-27T21:48:43;26.88;;;23.38;;
17239;SDS011;9943;54.378;18.604;2022-09-27T21:51:15;24.45;;;19.98;;
17239;SDS011;9943;54.378;18.604;2022-09-27T21:53:47;25.60;;;21.17;;
17239;SDS011;9943;54.378;18.604;2022-09-27T21:56:47;28.95;;;20.88;;
17239;SDS011;9943;54.378;18.604;2022-09-27T21:59:45;23.23;;;19.85;;
17239;SDS011;9943;54.378;18.604;2022-09-27T22:02:19;23.13;;;20.52;;
17239;SDS011;9943;54.378;18.604;2022-09-27T22:04:50;25.98;;;22.05;;
17239;SDS011;9943;54.378;18.604;2022-09-27T22:07:20;28.15;;;23.15;;
17239;SDS011;9943;54.378;18.604;2022-09-27T22:09:48;27.67;;;22.65;;
17239;SDS011;9943;54.378;18.604;2022-09-27T22:12:23;29.25;;;24.40;;
17239;SDS011;9943;54.378;18.604;2022-09-27T22:14:54;31.35;;;24.17;;
17239;SDS011;9943;54.378;18.604;2022-09-27T22:17:40;28.80;;;23.45;;
17239;SDS011;9943;54.378;18.604;2022-09-27T22:20:19;27.13;;;23.42;;
17239;SDS011;9943;54.378;18.604;2022-09-27T22:22:56;30.05;;;23.73;;
17239;SDS011;9943;54.378;18.604;2022-09-27T22:25:58;29.52;;;23.88;;
17239;SDS011;9943;54.378;18.604;2022-09-27T22:28:30;27.95;;;23.48;;
17239;SDS011;9943;54.378;18.604;2022-09-27T22:31:02;26.85;;;22.88;;
17239;SDS011;9943;54.378;18.604;2022-09-27T22:33:38;27.40;;;22.48;;
17239;SDS011;9943;54.378;18.604;2022-09-27T22:36:20;27.30;;;23.17;;
17239;SDS011;9943;54.378;18.604;2022-09-27T22:38:57;25.52;;;22.13;;
17239;SDS011;9943;54.378;18.604;2022-09-27T22:41:27;25.27;;;22.10;;
17239;SDS011;9943;54.378;18.604;2022-09-27T22:44:17;27.08;;;21.77;;
17239;SDS011;9943;54.378;18.604;2022-09-27T22:46:58;28.25;;;21.75;;
17239;SDS011;9943;54.378;18.604;2022-09-27T22:50:17;24.05;;;20.92;;
17239;SDS011;9943;54.378;18.604;2022-09-27T22:52:48;23.83;;;20.05;;
17239;SDS011;9943;54.378;18.604;2022-09-27T22:55:18;25.63;;;19.92;;
17239;SDS011;9943;54.378;18.604;2022-09-27T22:57:54;23.05;;;19.25;;
17239;SDS011;9943;54.378;18.604;2022-09-27T23:00:22;24.30;;;20.63;;
17239;SDS011;9943;54.378;18.604;2022-09-27T23:02:52;25.55;;;19.70;;
17239;SDS011;9943;54.378;18.604;2022-09-27T23:05:27;21.73;;;17.10;;
17239;SDS011;9943;54.378;18.604;2022-09-27T23:07:58;17.17;;;14.98;;
17239;SDS011;9943;54.378;18.604;2022-09-27T23:10:29;20.35;;;16.83;;
17239;SDS011;9943;54.378;18.604;2022-09-27T23:13:03;19.77;;;17.02;;
17239;SDS011;9943;54.378;18.604;2022-09-27T23:15:41;18.85;;;16.13;;
17239;SDS011;9943;54.378;18.604;2022-09-27T23:18:26;18.15;;;16.05;;
17239;SDS011;9943;54.378;18.604;2022-09-27T23:21:08;19.38;;;15.75;;
17239;SDS011;9943;54.378;18.604;2022-09-27T23:23:43;16.58;;;14.77;;
17239;SDS011;9943;54.378;18.604;2022-09-27T23:26:18;19.15;;;14.57;;
17239;SDS011;9943;54.378;18.604;2022-09-27T23:28:56;16.80;;;14.88;;
17239;SDS011;9943;54.378;18.604;2022-09-27T23:31:31;17.52;;;15.13;;
17239;SDS011;9943;54.378;18.604;2022-09-27T23:34:01;17.88;;;13.98;;
17239;SDS011;9943;54.378;18.604;2022-09-27T23:36:35;14.57;;;12.75;;
17239;SDS011;9943;54.378;18.604;2022-09-27T23:39:19;12.45;;;10.85;;
17239;SDS011;9943;54.378;18.604;2022-09-27T23:41:51;11.70;;;9.35;;
17239;SDS011;9943;54.378;18.604;2022-09-27T23:44:21;12.82;;;10.68;;
17239;SDS011;9943;54.378;18.604;2022-09-27T23:47:04;10.55;;;9.45;;
17239;SDS011;9943;54.378;18.604;2022-09-27T23:49:36;9.43;;;8.43;;
17239;SDS011;9943;54.378;18.604;2022-09-27T23:52:19;9.60;;;8.25;;
17239;SDS011;9943;54.378;18.604;2022-09-27T23:54:53;10.45;;;7.30;;
17239;SDS011;9943;54.378;18.604;2022-09-27T23:57:24;6.43;;;5.75;;
17239;SDS011;9943;54.378;18.604;2022-09-27T23:59:57;5.65;;;4.35;;
